LFPBLSZA

Guest
Details From LFPB - Paris Le Bourget
To LSZA - Lugano
Flight Number -
Tags Decoded
Created
Modified
Stats Distance 331 nm / 614 km
Max Altitude 0 ft / 0 m
Waypoints 4
Social Downloads 1
Likes 0
Share VATSIM

Download

Looking for another format? Having issues loading an existing format? Contact us
Advertisement - Login to hide

Notes

Decoded

Route

LFPB IXORA PINIK LSZA

ID Type Via Altitude Latitude Longitude Leg Dist Tot Dist Heading (true) Name
O LFPB APT - 0 ft / 0 m 48.94997˚ 2.42850˚ - 0 nm - -
IXORA FIX - 0 ft / 0 m 45.83667˚ 8.58889˚ 312 nm 312 nm 124° / 129° -
PINIK FIX - 0 ft / 0 m 45.87416˚ 8.84889˚ 11 nm 323 nm 78° / 78° -
O LSZA APT - 0 ft / 0 m 45.99853˚ 8.90776˚ 7 nm 331 nm 18° / 18° Lugano

Altitude Profile

Advertisement - Login to hide

Weather


0- 5 10 15 20 25 30 35+ Temperature / ° C

Clouds and Precipitation
Forecast for 2017-12-12 12:00 UTC. Updated an hour ago

Ground ~20,000 ft ~40,000 ft Winds

LFPB

Details ICAO LFPB (LBG)
Name Paris Le Bourget
Region France
Timezone Europe/Paris (UTC+1.0)
Stats Elevation 218 ft / 66 m (AMSL)
Location 48.964314° 2.435563°
Runways 3
Magnetic Variation 0.605° E

METAR

LFPB 120830Z AUTO 25007KT 9999 FEW039 OVC049 02/00 Q1010

Decode

TAF

TAF LFPB 120617Z 1206/1306 CNL= TAF LFSO 120610Z 1206/1303 25010KT 9999 BKN013 PROB40 TEMPO 1208/1210 BKN005 BECMG 1210/1212 FEW025 BECMG 1212/1214 SCT030TCU TEMPO 1214/1217 27015G30KT 4000 -SHSN SCT030CB BECMG 1217/1219 BKN040

Decode

Departure Runways

ID Width Length Bearing (true) Bearing (mag) Surface Threshold Offset Overrun Length
03 197 ft / 60 m 8,752 ft / 2,668 m 24.59° 23.99° Asphalt 0 ft / 0 m 0 ft / 0 m
07 180 ft / 55 m 9,853 ft / 3,003 m 67.59° 66.99° Concrete 984 ft / 300 m 0 ft / 0 m
09 148 ft / 45 m 6,059 ft / 1,847 m 85.09° 84.49° Asphalt 0 ft / 0 m 0 ft / 0 m
21 197 ft / 60 m 8,752 ft / 2,668 m 204.61° 204.01° Asphalt 0 ft / 0 m 0 ft / 0 m
25 180 ft / 55 m 9,853 ft / 3,003 m 247.61° 247.01° Concrete 2,956 ft / 901 m 0 ft / 0 m
27 148 ft / 45 m 6,059 ft / 1,847 m 265.11° 264.51° Asphalt 0 ft / 0 m 1,050 ft / 320 m

LSZA

Details ICAO LSZA (LUG)
Name Lugano
Region Switzerland
Timezone Europe/Zurich (UTC+1.0)
Stats Elevation 915 ft / 279 m (AMSL)
Location 46.004275° 8.910579°
Runways 1
Magnetic Variation 2.423° E

METAR

LSZA 120820Z VRB02KT 0650 FG BKN003 02/02 Q1007 NOSIG

Decode

TAF

Not found

Destination Runways

ID Width Length Bearing (true) Bearing (mag) Surface Threshold Offset Overrun Length
01 98 ft / 30 m 4,430 ft / 1,350 m 18.79° 16.37° Asphalt 361 ft / 110 m 0 ft / 0 m
19 98 ft / 30 m 4,430 ft / 1,350 m 198.79° 196.37° Asphalt 673 ft / 205 m 0 ft / 0 m

Approach Navaids

Runway Type Ident Frequency Range Bearing (true) Bearing (mag) Slope Elevation
01 Localiser ILU 111.50 MHz 18 nm / 33 km 18.79° 16.37° - 928 ft / 283 m (AMSL)
01 Glidescope ILU 111.50 MHz 10 nm / 19 km 19.99° 17.57° 6.00° 928 ft / 283 m (AMSL)
01 DME ILU 111.50 MHz 18 nm / 33 km - - - 928 ft / 283 m (AMSL)

Popular Alternatives